sensor_id;sensor_type;location;lat;lon;timestamp;P1;durP1;ratioP1;P2;durP2;ratioP2
75634;SDS011;64227;48.724;9.104;2023-09-18T00:00:43;2.20;;;1.63;;
75634;SDS011;64227;48.724;9.104;2023-09-18T00:03:09;1.75;;;1.52;;
75634;SDS011;64227;48.724;9.104;2023-09-18T00:05:35;1.77;;;1.50;;
75634;SDS011;64227;48.724;9.104;2023-09-18T00:08:00;2.10;;;1.90;;
75634;SDS011;64227;48.724;9.104;2023-09-18T00:10:27;2.30;;;1.60;;
75634;SDS011;64227;48.724;9.104;2023-09-18T00:12:53;3.75;;;1.70;;
75634;SDS011;64227;48.724;9.104;2023-09-18T00:15:19;1.60;;;1.50;;
75634;SDS011;64227;48.724;9.104;2023-09-18T00:17:44;2.38;;;1.70;;
75634;SDS011;64227;48.724;9.104;2023-09-18T00:20:10;1.77;;;1.50;;
75634;SDS011;64227;48.724;9.104;2023-09-18T00:22:35;1.95;;;1.75;;
75634;SDS011;64227;48.724;9.104;2023-09-18T00:25:01;1.77;;;1.58;;
75634;SDS011;64227;48.724;9.104;2023-09-18T00:27:27;1.52;;;1.42;;
75634;SDS011;64227;48.724;9.104;2023-09-18T00:29:52;3.13;;;1.67;;
75634;SDS011;64227;48.724;9.104;2023-09-18T00:32:18;1.52;;;1.40;;
75634;SDS011;64227;48.724;9.104;2023-09-18T00:34:43;1.58;;;1.48;;
75634;SDS011;64227;48.724;9.104;2023-09-18T00:37:08;2.00;;;1.80;;
75634;SDS011;64227;48.724;9.104;2023-09-18T00:39:37;2.38;;;1.77;;
75634;SDS011;64227;48.724;9.104;2023-09-18T00:42:02;1.90;;;1.70;;
75634;SDS011;64227;48.724;9.104;2023-09-18T00:44:27;2.10;;;1.75;;
75634;SDS011;64227;48.724;9.104;2023-09-18T00:46:53;2.25;;;1.58;;
75634;SDS011;64227;48.724;9.104;2023-09-18T00:49:20;2.17;;;1.67;;
75634;SDS011;64227;48.724;9.104;2023-09-18T00:51:45;2.75;;;1.73;;
75634;SDS011;64227;48.724;9.104;2023-09-18T00:54:12;2.38;;;1.40;;
75634;SDS011;64227;48.724;9.104;2023-09-18T00:56:37;2.20;;;1.60;;
75634;SDS011;64227;48.724;9.104;2023-09-18T00:59:03;2.00;;;1.80;;
75634;SDS011;64227;48.724;9.104;2023-09-18T01:01:28;1.98;;;1.77;;
75634;SDS011;64227;48.724;9.104;2023-09-18T01:03:54;1.70;;;1.60;;
75634;SDS011;64227;48.724;9.104;2023-09-18T01:06:20;1.63;;;1.52;;
75634;SDS011;64227;48.724;9.104;2023-09-18T01:08:47;1.50;;;1.40;;
75634;SDS011;64227;48.724;9.104;2023-09-18T01:14:06;1.75;;;1.65;;
75634;SDS011;64227;48.724;9.104;2023-09-18T01:16:56;2.20;;;1.70;;
75634;SDS011;64227;48.724;9.104;2023-09-18T01:19:35;2.97;;;1.80;;
75634;SDS011;64227;48.724;9.104;2023-09-18T01:22:09;2.38;;;1.60;;
75634;SDS011;64227;48.724;9.104;2023-09-18T01:24:37;3.88;;;1.92;;
75634;SDS011;64227;48.724;9.104;2023-09-18T01:27:04;2.10;;;1.90;;
75634;SDS011;64227;48.724;9.104;2023-09-18T01:29:31;2.22;;;1.77;;
75634;SDS011;64227;48.724;9.104;2023-09-18T01:31:56;2.00;;;1.75;;
75634;SDS011;64227;48.724;9.104;2023-09-18T01:34:24;2.42;;;1.80;;
75634;SDS011;64227;48.724;9.104;2023-09-18T01:36:52;1.98;;;1.70;;
75634;SDS011;64227;48.724;9.104;2023-09-18T01:39:18;2.13;;;1.83;;
75634;SDS011;64227;48.724;9.104;2023-09-18T01:41:44;1.83;;;1.60;;
75634;SDS011;64227;48.724;9.104;2023-09-18T01:44:10;2.47;;;1.48;;
75634;SDS011;64227;48.724;9.104;2023-09-18T01:46:36;4.53;;;1.50;;
75634;SDS011;64227;48.724;9.104;2023-09-18T01:49:02;2.95;;;1.80;;
75634;SDS011;64227;48.724;9.104;2023-09-18T01:51:28;4.75;;;1.83;;
75634;SDS011;64227;48.724;9.104;2023-09-18T01:53:54;3.78;;;1.77;;
75634;SDS011;64227;48.724;9.104;2023-09-18T01:56:20;3.63;;;1.77;;
75634;SDS011;64227;48.724;9.104;2023-09-18T01:58:45;9.80;;;2.83;;
75634;SDS011;64227;48.724;9.104;2023-09-18T02:01:11;4.45;;;2.00;;
75634;SDS011;64227;48.724;9.104;2023-09-18T02:03:36;6.53;;;1.80;;
75634;SDS011;64227;48.724;9.104;2023-09-18T02:06:01;6.82;;;2.15;;
75634;SDS011;64227;48.724;9.104;2023-09-18T02:08:27;5.05;;;1.95;;
75634;SDS011;64227;48.724;9.104;2023-09-18T02:10:52;5.38;;;2.70;;
75634;SDS011;64227;48.724;9.104;2023-09-18T02:13:17;8.13;;;1.85;;
75634;SDS011;64227;48.724;9.104;2023-09-18T02:15:43;4.97;;;1.90;;
75634;SDS011;64227;48.724;9.104;2023-09-18T02:18:09;5.05;;;2.33;;
75634;SDS011;64227;48.724;9.104;2023-09-18T02:20:39;6.78;;;2.38;;
75634;SDS011;64227;48.724;9.104;2023-09-18T02:23:06;5.15;;;2.10;;
75634;SDS011;64227;48.724;9.104;2023-09-18T02:25:31;6.20;;;1.85;;
75634;SDS011;64227;48.724;9.104;2023-09-18T02:27:56;7.70;;;1.85;;
75634;SDS011;64227;48.724;9.104;2023-09-18T02:30:21;4.70;;;1.70;;
75634;SDS011;64227;48.724;9.104;2023-09-18T02:32:47;8.52;;;1.75;;
75634;SDS011;64227;48.724;9.104;2023-09-18T02:35:12;7.82;;;1.77;;
75634;SDS011;64227;48.724;9.104;2023-09-18T02:37:38;8.57;;;2.55;;
75634;SDS011;64227;48.724;9.104;2023-09-18T02:40:03;9.65;;;2.00;;
75634;SDS011;64227;48.724;9.104;2023-09-18T02:42:30;12.23;;;2.10;;
75634;SDS011;64227;48.724;9.104;2023-09-18T02:44:55;9.70;;;2.47;;
75634;SDS011;64227;48.724;9.104;2023-09-18T02:47:20;9.65;;;2.35;;
75634;SDS011;64227;48.724;9.104;2023-09-18T02:49:46;8.65;;;2.17;;
75634;SDS011;64227;48.724;9.104;2023-09-18T02:52:11;4.07;;;1.65;;
75634;SDS011;64227;48.724;9.104;2023-09-18T02:54:36;5.45;;;1.92;;
75634;SDS011;64227;48.724;9.104;2023-09-18T02:57:02;4.45;;;2.03;;
75634;SDS011;64227;48.724;9.104;2023-09-18T02:59:27;6.88;;;2.65;;
75634;SDS011;64227;48.724;9.104;2023-09-18T03:01:53;5.72;;;2.15;;
75634;SDS011;64227;48.724;9.104;2023-09-18T03:04:18;5.88;;;2.08;;
75634;SDS011;64227;48.724;9.104;2023-09-18T03:06:44;7.78;;;2.40;;
75634;SDS011;64227;48.724;9.104;2023-09-18T03:09:10;10.10;;;2.58;;
75634;SDS011;64227;48.724;9.104;2023-09-18T03:11:36;4.95;;;1.77;;
75634;SDS011;64227;48.724;9.104;2023-09-18T03:14:01;6.70;;;2.63;;
75634;SDS011;64227;48.724;9.104;2023-09-18T03:16:26;5.25;;;1.88;;
75634;SDS011;64227;48.724;9.104;2023-09-18T03:18:51;8.80;;;2.20;;
75634;SDS011;64227;48.724;9.104;2023-09-18T03:21:17;4.43;;;1.60;;
75634;SDS011;64227;48.724;9.104;2023-09-18T03:23:42;4.15;;;1.67;;
75634;SDS011;64227;48.724;9.104;2023-09-18T03:26:07;6.20;;;2.05;;
75634;SDS011;64227;48.724;9.104;2023-09-18T03:28:33;3.33;;;1.70;;
75634;SDS011;64227;48.724;9.104;2023-09-18T03:30:58;4.65;;;1.50;;
75634;SDS011;64227;48.724;9.104;2023-09-18T03:33:23;3.75;;;1.45;;
75634;SDS011;64227;48.724;9.104;2023-09-18T03:35:49;6.30;;;1.80;;
75634;SDS011;64227;48.724;9.104;2023-09-18T03:38:15;4.95;;;1.83;;
75634;SDS011;64227;48.724;9.104;2023-09-18T03:40:41;4.63;;;1.35;;
75634;SDS011;64227;48.724;9.104;2023-09-18T03:43:06;6.03;;;1.65;;
75634;SDS011;64227;48.724;9.104;2023-09-18T03:45:32;6.80;;;1.90;;
75634;SDS011;64227;48.724;9.104;2023-09-18T03:47:57;9.05;;;2.28;;
75634;SDS011;64227;48.724;9.104;2023-09-18T03:50:23;6.80;;;1.73;;
75634;SDS011;64227;48.724;9.104;2023-09-18T03:52:48;6.60;;;2.10;;
75634;SDS011;64227;48.724;9.104;2023-09-18T03:55:13;5.28;;;1.73;;
75634;SDS011;64227;48.724;9.104;2023-09-18T03:57:39;8.10;;;2.20;;
75634;SDS011;64227;48.724;9.104;2023-09-18T04:00:05;3.90;;;1.35;;
75634;SDS011;64227;48.724;9.104;2023-09-18T04:02:32;7.40;;;1.77;;
75634;SDS011;64227;48.724;9.104;2023-09-18T04:04:57;7.75;;;1.75;;
75634;SDS011;64227;48.724;9.104;2023-09-18T04:07:23;3.05;;;1.70;;
75634;SDS011;64227;48.724;9.104;2023-09-18T04:09:48;9.60;;;1.70;;
75634;SDS011;64227;48.724;9.104;2023-09-18T04:12:13;3.05;;;1.50;;
75634;SDS011;64227;48.724;9.104;2023-09-18T04:14:39;4.47;;;1.73;;
75634;SDS011;64227;48.724;9.104;2023-09-18T04:17:05;5.95;;;1.63;;
75634;SDS011;64227;48.724;9.104;2023-09-18T04:19:30;5.03;;;1.85;;
75634;SDS011;64227;48.724;9.104;2023-09-18T04:21:55;3.95;;;1.83;;
75634;SDS011;64227;48.724;9.104;2023-09-18T04:24:21;4.57;;;1.80;;
75634;SDS011;64227;48.724;9.104;2023-09-18T04:26:48;5.80;;;1.70;;
75634;SDS011;64227;48.724;9.104;2023-09-18T04:29:15;5.57;;;1.30;;
75634;SDS011;64227;48.724;9.104;2023-09-18T04:31:41;6.32;;;1.67;;
75634;SDS011;64227;48.724;9.104;2023-09-18T04:34:06;7.60;;;2.03;;
75634;SDS011;64227;48.724;9.104;2023-09-18T04:36:31;2.90;;;1.30;;
75634;SDS011;64227;48.724;9.104;2023-09-18T04:38:57;2.03;;;1.13;;
75634;SDS011;64227;48.724;9.104;2023-09-18T04:41:22;5.32;;;1.50;;
75634;SDS011;64227;48.724;9.104;2023-09-18T04:43:47;5.95;;;1.65;;
75634;SDS011;64227;48.724;9.104;2023-09-18T04:46:13;3.20;;;1.70;;
75634;SDS011;64227;48.724;9.104;2023-09-18T04:48:38;3.83;;;1.30;;
75634;SDS011;64227;48.724;9.104;2023-09-18T04:51:04;4.28;;;1.30;;
75634;SDS011;64227;48.724;9.104;2023-09-18T04:53:30;3.50;;;1.23;;
75634;SDS011;64227;48.724;9.104;2023-09-18T04:55:56;5.43;;;1.63;;
75634;SDS011;64227;48.724;9.104;2023-09-18T04:58:21;5.43;;;1.10;;
75634;SDS011;64227;48.724;9.104;2023-09-18T05:00:47;2.67;;;1.23;;
75634;SDS011;64227;48.724;9.104;2023-09-18T05:03:18;3.92;;;1.35;;
75634;SDS011;64227;48.724;9.104;2023-09-18T05:05:43;4.82;;;1.58;;
75634;SDS011;64227;48.724;9.104;2023-09-18T05:08:09;4.30;;;1.85;;
75634;SDS011;64227;48.724;9.104;2023-09-18T05:10:34;3.08;;;1.20;;
75634;SDS011;64227;48.724;9.104;2023-09-18T05:13:00;3.15;;;1.42;;
75634;SDS011;64227;48.724;9.104;2023-09-18T05:15:25;2.72;;;1.63;;
75634;SDS011;64227;48.724;9.104;2023-09-18T05:17:55;6.30;;;1.73;;
75634;SDS011;64227;48.724;9.104;2023-09-18T05:20:23;4.13;;;1.38;;
75634;SDS011;64227;48.724;9.104;2023-09-18T05:22:55;3.95;;;1.83;;
75634;SDS011;64227;48.724;9.104;2023-09-18T05:25:22;3.65;;;1.45;;
75634;SDS011;64227;48.724;9.104;2023-09-18T05:27:48;3.90;;;1.98;;
75634;SDS011;64227;48.724;9.104;2023-09-18T05:30:27;4.18;;;1.42;;
75634;SDS011;64227;48.724;9.104;2023-09-18T05:32:54;4.45;;;1.35;;
75634;SDS011;64227;48.724;9.104;2023-09-18T05:35:20;4.70;;;1.42;;
75634;SDS011;64227;48.724;9.104;2023-09-18T05:37:46;3.13;;;1.30;;
75634;SDS011;64227;48.724;9.104;2023-09-18T05:40:12;3.45;;;1.35;;
75634;SDS011;64227;48.724;9.104;2023-09-18T05:42:38;2.95;;;1.30;;
75634;SDS011;64227;48.724;9.104;2023-09-18T05:45:07;7.85;;;1.83;;
75634;SDS011;64227;48.724;9.104;2023-09-18T05:47:33;4.53;;;1.30;;
75634;SDS011;64227;48.724;9.104;2023-09-18T05:50:00;4.82;;;1.38;;
75634;SDS011;64227;48.724;9.104;2023-09-18T05:52:30;3.78;;;1.35;;
75634;SDS011;64227;48.724;9.104;2023-09-18T05:54:55;6.68;;;1.40;;
75634;SDS011;64227;48.724;9.104;2023-09-18T05:57:21;3.70;;;1.63;;
75634;SDS011;64227;48.724;9.104;2023-09-18T05:59:46;2.67;;;1.20;;
75634;SDS011;64227;48.724;9.104;2023-09-18T06:02:11;6.43;;;1.77;;
75634;SDS011;64227;48.724;9.104;2023-09-18T06:04:37;4.18;;;1.35;;
75634;SDS011;64227;48.724;9.104;2023-09-18T06:07:03;3.13;;;1.00;;
75634;SDS011;64227;48.724;9.104;2023-09-18T06:09:28;3.95;;;1.42;;
75634;SDS011;64227;48.724;9.104;2023-09-18T06:11:54;2.50;;;1.30;;
75634;SDS011;64227;48.724;9.104;2023-09-18T06:14:19;4.40;;;1.40;;
75634;SDS011;64227;48.724;9.104;2023-09-18T06:16:44;2.95;;;1.60;;
75634;SDS011;64227;48.724;9.104;2023-09-18T06:19:10;3.78;;;1.40;;
75634;SDS011;64227;48.724;9.104;2023-09-18T06:21:35;4.18;;;1.80;;
75634;SDS011;64227;48.724;9.104;2023-09-18T06:24:00;5.35;;;1.67;;
75634;SDS011;64227;48.724;9.104;2023-09-18T06:26:26;4.88;;;1.65;;
75634;SDS011;64227;48.724;9.104;2023-09-18T06:28:52;5.72;;;1.63;;
75634;SDS011;64227;48.724;9.104;2023-09-18T06:31:19;1.77;;;1.23;;
75634;SDS011;64227;48.724;9.104;2023-09-18T06:33:48;7.60;;;1.73;;
75634;SDS011;64227;48.724;9.104;2023-09-18T06:38:38;7.10;;;1.43;;
75634;SDS011;64227;48.724;9.104;2023-09-18T06:41:04;5.50;;;1.58;;
75634;SDS011;64227;48.724;9.104;2023-09-18T06:43:29;5.47;;;1.77;;
75634;SDS011;64227;48.724;9.104;2023-09-18T06:45:54;3.33;;;1.50;;
75634;SDS011;64227;48.724;9.104;2023-09-18T06:48:22;4.50;;;1.77;;
75634;SDS011;64227;48.724;9.104;2023-09-18T06:50:48;7.35;;;1.63;;
75634;SDS011;64227;48.724;9.104;2023-09-18T06:53:13;3.55;;;1.58;;
75634;SDS011;64227;48.724;9.104;2023-09-18T06:55:39;8.40;;;1.90;;
75634;SDS011;64227;48.724;9.104;2023-09-18T06:58:04;3.67;;;1.60;;
75634;SDS011;64227;48.724;9.104;2023-09-18T07:00:29;2.08;;;1.75;;
75634;SDS011;64227;48.724;9.104;2023-09-18T07:02:55;3.33;;;1.65;;
75634;SDS011;64227;48.724;9.104;2023-09-18T07:05:20;4.05;;;1.00;;
75634;SDS011;64227;48.724;9.104;2023-09-18T07:07:45;2.60;;;1.05;;
75634;SDS011;64227;48.724;9.104;2023-09-18T07:10:11;3.97;;;1.23;;
75634;SDS011;64227;48.724;9.104;2023-09-18T07:12:37;5.85;;;1.42;;
75634;SDS011;64227;48.724;9.104;2023-09-18T07:15:02;5.82;;;1.48;;
75634;SDS011;64227;48.724;9.104;2023-09-18T07:17:28;2.35;;;1.25;;
75634;SDS011;64227;48.724;9.104;2023-09-18T07:19:54;2.60;;;1.13;;
75634;SDS011;64227;48.724;9.104;2023-09-18T07:22:19;4.30;;;1.00;;
75634;SDS011;64227;48.724;9.104;2023-09-18T07:24:45;4.13;;;1.30;;
75634;SDS011;64227;48.724;9.104;2023-09-18T07:27:11;4.35;;;1.63;;
75634;SDS011;64227;48.724;9.104;2023-09-18T07:29:36;3.08;;;0.93;;
75634;SDS011;64227;48.724;9.104;2023-09-18T07:32:01;3.05;;;0.90;;
75634;SDS011;64227;48.724;9.104;2023-09-18T07:34:27;3.20;;;0.95;;
75634;SDS011;64227;48.724;9.104;2023-09-18T07:36:52;3.28;;;0.80;;
75634;SDS011;64227;48.724;9.104;2023-09-18T07:39:20;1.60;;;0.85;;
75634;SDS011;64227;48.724;9.104;2023-09-18T07:41:45;3.78;;;1.00;;
75634;SDS011;64227;48.724;9.104;2023-09-18T07:44:12;3.65;;;0.77;;
75634;SDS011;64227;48.724;9.104;2023-09-18T07:46:38;2.03;;;0.70;;
75634;SDS011;64227;48.724;9.104;2023-09-18T07:49:03;1.95;;;0.70;;
75634;SDS011;64227;48.724;9.104;2023-09-18T07:51:28;1.00;;;0.70;;
75634;SDS011;64227;48.724;9.104;2023-09-18T07:53:55;1.23;;;0.70;;
75634;SDS011;64227;48.724;9.104;2023-09-18T07:56:20;3.05;;;0.65;;
75634;SDS011;64227;48.724;9.104;2023-09-18T07:58:46;4.03;;;0.82;;
75634;SDS011;64227;48.724;9.104;2023-09-18T08:01:11;2.17;;;0.70;;
75634;SDS011;64227;48.724;9.104;2023-09-18T08:03:37;1.88;;;0.75;;
75634;SDS011;64227;48.724;9.104;2023-09-18T08:06:03;1.45;;;0.63;;
75634;SDS011;64227;48.724;9.104;2023-09-18T08:08:29;0.77;;;0.63;;
75634;SDS011;64227;48.724;9.104;2023-09-18T08:10:57;2.15;;;0.70;;
75634;SDS011;64227;48.724;9.104;2023-09-18T08:13:23;1.25;;;0.60;;
75634;SDS011;64227;48.724;9.104;2023-09-18T08:15:49;3.92;;;0.90;;
75634;SDS011;64227;48.724;9.104;2023-09-18T08:18:15;1.80;;;0.68;;
75634;SDS011;64227;48.724;9.104;2023-09-18T08:20:44;2.03;;;0.70;;
75634;SDS011;64227;48.724;9.104;2023-09-18T08:23:10;2.38;;;0.70;;
75634;SDS011;64227;48.724;9.104;2023-09-18T08:25:35;2.50;;;0.65;;
75634;SDS011;64227;48.724;9.104;2023-09-18T08:28:01;1.55;;;0.77;;
75634;SDS011;64227;48.724;9.104;2023-09-18T08:30:28;2.75;;;0.70;;
75634;SDS011;64227;48.724;9.104;2023-09-18T08:32:53;1.73;;;0.50;;
75634;SDS011;64227;48.724;9.104;2023-09-18T08:35:19;1.70;;;0.70;;
75634;SDS011;64227;48.724;9.104;2023-09-18T08:37:45;3.00;;;0.50;;
75634;SDS011;64227;48.724;9.104;2023-09-18T08:40:11;2.17;;;0.60;;
75634;SDS011;64227;48.724;9.104;2023-09-18T08:42:39;1.25;;;0.68;;
75634;SDS011;64227;48.724;9.104;2023-09-18T08:45:09;2.47;;;1.15;;
75634;SDS011;64227;48.724;9.104;2023-09-18T08:47:35;3.10;;;1.02;;
75634;SDS011;64227;48.724;9.104;2023-09-18T08:50:03;3.40;;;1.15;;
75634;SDS011;64227;48.724;9.104;2023-09-18T08:52:28;2.97;;;0.80;;
75634;SDS011;64227;48.724;9.104;2023-09-18T08:54:54;1.92;;;0.90;;
75634;SDS011;64227;48.724;9.104;2023-09-18T08:57:21;4.93;;;1.08;;
75634;SDS011;64227;48.724;9.104;2023-09-18T08:59:46;1.88;;;0.80;;
75634;SDS011;64227;48.724;9.104;2023-09-18T09:02:13;3.25;;;0.93;;
75634;SDS011;64227;48.724;9.104;2023-09-18T09:04:38;1.20;;;0.90;;
75634;SDS011;64227;48.724;9.104;2023-09-18T09:07:04;1.15;;;0.80;;
75634;SDS011;64227;48.724;9.104;2023-09-18T09:09:29;2.97;;;1.20;;
75634;SDS011;64227;48.724;9.104;2023-09-18T09:11:56;3.13;;;0.90;;
75634;SDS011;64227;48.724;9.104;2023-09-18T09:14:21;3.25;;;0.98;;
75634;SDS011;64227;48.724;9.104;2023-09-18T09:16:53;2.47;;;1.00;;
75634;SDS011;64227;48.724;9.104;2023-09-18T09:19:26;5.13;;;1.05;;
75634;SDS011;64227;48.724;9.104;2023-09-18T09:21:54;2.65;;;0.90;;
75634;SDS011;64227;48.724;9.104;2023-09-18T09:24:35;1.40;;;0.80;;
75634;SDS011;64227;48.724;9.104;2023-09-18T09:27:04;4.03;;;0.93;;
75634;SDS011;64227;48.724;9.104;2023-09-18T09:29:30;2.17;;;0.90;;
75634;SDS011;64227;48.724;9.104;2023-09-18T09:31:56;3.25;;;1.05;;
75634;SDS011;64227;48.724;9.104;2023-09-18T09:34:26;3.00;;;1.00;;
75634;SDS011;64227;48.724;9.104;2023-09-18T09:36:54;2.65;;;0.75;;
75634;SDS011;64227;48.724;9.104;2023-09-18T09:39:26;1.63;;;1.10;;
75634;SDS011;64227;48.724;9.104;2023-09-18T09:41:51;3.70;;;1.67;;
75634;SDS011;64227;48.724;9.104;2023-09-18T09:44:17;2.55;;;1.10;;
75634;SDS011;64227;48.724;9.104;2023-09-18T09:46:50;2.88;;;0.95;;
75634;SDS011;64227;48.724;9.104;2023-09-18T09:49:16;2.60;;;0.90;;
75634;SDS011;64227;48.724;9.104;2023-09-18T09:51:42;2.83;;;1.00;;
75634;SDS011;64227;48.724;9.104;2023-09-18T09:54:08;1.75;;;1.02;;
75634;SDS011;64227;48.724;9.104;2023-09-18T09:56:42;2.45;;;1.02;;
75634;SDS011;64227;48.724;9.104;2023-09-18T09:59:13;4.95;;;1.42;;
75634;SDS011;64227;48.724;9.104;2023-09-18T10:01:39;4.40;;;1.70;;
75634;SDS011;64227;48.724;9.104;2023-09-18T10:04:10;2.30;;;1.15;;
75634;SDS011;64227;48.724;9.104;2023-09-18T10:06:37;2.60;;;1.00;;
75634;SDS011;64227;48.724;9.104;2023-09-18T10:09:03;3.88;;;1.27;;
75634;SDS011;64227;48.724;9.104;2023-09-18T10:11:38;3.05;;;1.10;;
75634;SDS011;64227;48.724;9.104;2023-09-18T10:14:07;2.88;;;1.23;;
75634;SDS011;64227;48.724;9.104;2023-09-18T10:16:37;1.10;;;0.80;;
75634;SDS011;64227;48.724;9.104;2023-09-18T10:24:26;2.63;;;1.02;;
75634;SDS011;64227;48.724;9.104;2023-09-18T10:26:57;4.50;;;1.15;;
75634;SDS011;64227;48.724;9.104;2023-09-18T10:29:24;3.28;;;1.20;;
75634;SDS011;64227;48.724;9.104;2023-09-18T10:31:50;3.85;;;1.02;;
75634;SDS011;64227;48.724;9.104;2023-09-18T10:34:17;3.35;;;1.05;;
75634;SDS011;64227;48.724;9.104;2023-09-18T10:36:43;3.78;;;1.23;;
75634;SDS011;64227;48.724;9.104;2023-09-18T10:39:11;1.10;;;1.00;;
75634;SDS011;64227;48.724;9.104;2023-09-18T10:41:38;3.22;;;1.30;;
75634;SDS011;64227;48.724;9.104;2023-09-18T10:44:03;4.03;;;1.40;;
75634;SDS011;64227;48.724;9.104;2023-09-18T10:46:29;1.88;;;1.00;;
75634;SDS011;64227;48.724;9.104;2023-09-18T10:48:54;3.10;;;1.63;;
75634;SDS011;64227;48.724;9.104;2023-09-18T10:51:21;1.88;;;1.00;;
75634;SDS011;64227;48.724;9.104;2023-09-18T10:53:49;2.28;;;0.90;;
75634;SDS011;64227;48.724;9.104;2023-09-18T10:56:17;2.65;;;1.23;;
75634;SDS011;64227;48.724;9.104;2023-09-18T10:58:48;2.30;;;0.90;;
75634;SDS011;64227;48.724;9.104;2023-09-18T11:01:21;2.58;;;0.82;;
75634;SDS011;64227;48.724;9.104;2023-09-18T11:03:48;2.40;;;1.10;;
75634;SDS011;64227;48.724;9.104;2023-09-18T11:06:15;1.42;;;1.17;;
75634;SDS011;64227;48.724;9.104;2023-09-18T11:08:43;4.32;;;0.90;;
75634;SDS011;64227;48.724;9.104;2023-09-18T11:11:11;3.22;;;1.15;;
75634;SDS011;64227;48.724;9.104;2023-09-18T11:13:54;3.58;;;1.25;;
75634;SDS011;64227;48.724;9.104;2023-09-18T11:16:42;2.35;;;0.90;;
75634;SDS011;64227;48.724;9.104;2023-09-18T11:19:12;1.08;;;0.90;;
75634;SDS011;64227;48.724;9.104;2023-09-18T11:21:39;3.97;;;1.88;;
75634;SDS011;64227;48.724;9.104;2023-09-18T11:24:09;1.90;;;0.82;;
75634;SDS011;64227;48.724;9.104;2023-09-18T11:26:42;2.00;;;1.00;;
75634;SDS011;64227;48.724;9.104;2023-09-18T11:29:08;3.08;;;0.95;;
75634;SDS011;64227;48.724;9.104;2023-09-18T11:31:48;2.70;;;0.90;;
75634;SDS011;64227;48.724;9.104;2023-09-18T11:36:44;3.30;;;0.80;;
75634;SDS011;64227;48.724;9.104;2023-09-18T11:39:10;3.42;;;0.98;;
75634;SDS011;64227;48.724;9.104;2023-09-18T11:41:36;2.13;;;1.00;;
75634;SDS011;64227;48.724;9.104;2023-09-18T11:46:47;2.50;;;0.88;;
75634;SDS011;64227;48.724;9.104;2023-09-18T11:49:19;1.42;;;0.90;;
75634;SDS011;64227;48.724;9.104;2023-09-18T11:51:51;1.90;;;0.80;;
75634;SDS011;64227;48.724;9.104;2023-09-18T11:54:17;1.25;;;0.80;;
75634;SDS011;64227;48.724;9.104;2023-09-18T11:56:43;0.88;;;0.75;;
75634;SDS011;64227;48.724;9.104;2023-09-18T11:59:09;1.05;;;0.70;;
75634;SDS011;64227;48.724;9.104;2023-09-18T12:01:35;1.50;;;0.80;;
75634;SDS011;64227;48.724;9.104;2023-09-18T12:04:01;1.83;;;1.00;;
75634;SDS011;64227;48.724;9.104;2023-09-18T12:06:27;2.97;;;1.00;;
75634;SDS011;64227;48.724;9.104;2023-09-18T12:08:52;0.85;;;0.80;;
75634;SDS011;64227;48.724;9.104;2023-09-18T12:11:18;1.85;;;0.90;;
75634;SDS011;64227;48.724;9.104;2023-09-18T12:13:45;1.73;;;0.80;;
75634;SDS011;64227;48.724;9.104;2023-09-18T12:16:11;1.10;;;0.90;;
75634;SDS011;64227;48.724;9.104;2023-09-18T12:18:37;1.50;;;0.90;;
75634;SDS011;64227;48.724;9.104;2023-09-18T12:21:10;1.08;;;0.90;;
75634;SDS011;64227;48.724;9.104;2023-09-18T12:23:39;1.13;;;0.98;;
75634;SDS011;64227;48.724;9.104;2023-09-18T12:26:05;2.35;;;0.75;;
75634;SDS011;64227;48.724;9.104;2023-09-18T12:28:32;1.75;;;0.80;;
75634;SDS011;64227;48.724;9.104;2023-09-18T12:30:58;1.17;;;0.88;;
75634;SDS011;64227;48.724;9.104;2023-09-18T12:33:24;1.77;;;0.80;;
75634;SDS011;64227;48.724;9.104;2023-09-18T12:35:50;0.88;;;0.68;;
75634;SDS011;64227;48.724;9.104;2023-09-18T12:38:16;1.13;;;0.75;;
75634;SDS011;64227;48.724;9.104;2023-09-18T12:40:44;2.53;;;0.70;;
75634;SDS011;64227;48.724;9.104;2023-09-18T12:43:11;1.67;;;0.70;;
75634;SDS011;64227;48.724;9.104;2023-09-18T12:45:37;2.63;;;0.70;;
75634;SDS011;64227;48.724;9.104;2023-09-18T12:48:03;2.22;;;0.95;;
75634;SDS011;64227;48.724;9.104;2023-09-18T12:50:29;1.33;;;0.70;;
75634;SDS011;64227;48.724;9.104;2023-09-18T12:53:05;0.82;;;0.70;;
75634;SDS011;64227;48.724;9.104;2023-09-18T12:55:32;1.50;;;0.70;;
75634;SDS011;64227;48.724;9.104;2023-09-18T12:57:57;1.85;;;0.68;;
75634;SDS011;64227;48.724;9.104;2023-09-18T13:00:24;1.65;;;1.00;;
75634;SDS011;64227;48.724;9.104;2023-09-18T13:02:51;1.38;;;0.80;;
75634;SDS011;64227;48.724;9.104;2023-09-18T13:05:20;1.40;;;0.80;;
75634;SDS011;64227;48.724;9.104;2023-09-18T13:07:46;1.33;;;0.60;;
75634;SDS011;64227;48.724;9.104;2023-09-18T13:10:15;1.90;;;0.70;;
75634;SDS011;64227;48.724;9.104;2023-09-18T13:15:30;2.05;;;0.60;;
75634;SDS011;64227;48.724;9.104;2023-09-18T13:17:57;0.82;;;0.68;;
75634;SDS011;64227;48.724;9.104;2023-09-18T13:20:24;1.15;;;0.47;;
75634;SDS011;64227;48.724;9.104;2023-09-18T13:22:54;1.88;;;0.52;;
75634;SDS011;64227;48.724;9.104;2023-09-18T13:25:21;1.35;;;0.70;;
75634;SDS011;64227;48.724;9.104;2023-09-18T13:27:47;1.05;;;0.57;;
75634;SDS011;64227;48.724;9.104;2023-09-18T13:30:14;2.22;;;0.60;;
75634;SDS011;64227;48.724;9.104;2023-09-18T13:32:42;3.20;;;0.65;;
75634;SDS011;64227;48.724;9.104;2023-09-18T13:35:08;3.17;;;0.68;;
75634;SDS011;64227;48.724;9.104;2023-09-18T13:37:34;2.03;;;0.70;;
75634;SDS011;64227;48.724;9.104;2023-09-18T13:39:59;0.50;;;0.50;;
75634;SDS011;64227;48.724;9.104;2023-09-18T13:42:27;2.95;;;0.77;;
75634;SDS011;64227;48.724;9.104;2023-09-18T13:44:54;0.90;;;0.70;;
75634;SDS011;64227;48.724;9.104;2023-09-18T13:47:20;1.67;;;0.60;;
75634;SDS011;64227;48.724;9.104;2023-09-18T13:49:45;0.80;;;0.60;;
75634;SDS011;64227;48.724;9.104;2023-09-18T13:52:11;2.22;;;0.70;;
75634;SDS011;64227;48.724;9.104;2023-09-18T13:54:37;2.17;;;0.80;;
75634;SDS011;64227;48.724;9.104;2023-09-18T13:57:02;4.40;;;0.70;;
75634;SDS011;64227;48.724;9.104;2023-09-18T13:59:30;0.50;;;0.50;;
75634;SDS011;64227;48.724;9.104;2023-09-18T14:01:55;1.85;;;0.63;;
75634;SDS011;64227;48.724;9.104;2023-09-18T14:04:22;1.05;;;0.55;;
75634;SDS011;64227;48.724;9.104;2023-09-18T14:06:47;2.25;;;0.70;;
75634;SDS011;64227;48.724;9.104;2023-09-18T14:09:13;2.55;;;0.70;;
75634;SDS011;64227;48.724;9.104;2023-09-18T14:11:38;1.67;;;0.80;;
75634;SDS011;64227;48.724;9.104;2023-09-18T14:14:03;2.55;;;0.80;;
75634;SDS011;64227;48.724;9.104;2023-09-18T14:16:29;2.58;;;0.80;;
75634;SDS011;64227;48.724;9.104;2023-09-18T14:18:58;1.20;;;0.70;;
75634;SDS011;64227;48.724;9.104;2023-09-18T14:21:23;1.25;;;0.75;;
75634;SDS011;64227;48.724;9.104;2023-09-18T14:23:49;1.65;;;1.10;;
75634;SDS011;64227;48.724;9.104;2023-09-18T14:26:14;2.85;;;0.70;;
75634;SDS011;64227;48.724;9.104;2023-09-18T14:28:40;2.08;;;0.73;;
75634;SDS011;64227;48.724;9.104;2023-09-18T14:31:05;1.40;;;0.77;;
75634;SDS011;64227;48.724;9.104;2023-09-18T14:33:31;1.40;;;0.50;;
75634;SDS011;64227;48.724;9.104;2023-09-18T14:36:00;0.45;;;0.43;;
75634;SDS011;64227;48.724;9.104;2023-09-18T14:38:26;0.52;;;0.32;;
75634;SDS011;64227;48.724;9.104;2023-09-18T14:40:51;1.13;;;0.57;;
75634;SDS011;64227;48.724;9.104;2023-09-18T14:43:17;2.83;;;0.65;;
75634;SDS011;64227;48.724;9.104;2023-09-18T14:45:45;1.20;;;0.55;;
75634;SDS011;64227;48.724;9.104;2023-09-18T14:48:10;1.25;;;0.52;;
75634;SDS011;64227;48.724;9.104;2023-09-18T14:50:36;0.77;;;0.50;;
75634;SDS011;64227;48.724;9.104;2023-09-18T14:53:01;2.35;;;0.50;;
75634;SDS011;64227;48.724;9.104;2023-09-18T14:55:28;0.75;;;0.70;;
75634;SDS011;64227;48.724;9.104;2023-09-18T14:57:55;1.30;;;0.60;;
75634;SDS011;64227;48.724;9.104;2023-09-18T15:00:20;2.60;;;0.70;;
75634;SDS011;64227;48.724;9.104;2023-09-18T15:02:45;0.88;;;0.60;;